Time;durP1;ratioP1;P1;durP2;ratioP2;P2;SDS_P1;SDS_P2;PMS_P1;PMS_P2;Temp;Humidity;BMP_temperature;BMP_pressure;BME280_temperature;BME280_humidity;BME280_pressure;Samples;Min_cycle;Max_cycle;Signal;HPM_P1;HPM_P2
2022/02/21 00:03:20;;;;;;;3.43;1.73;;;;;;;11.42;51.97;98380.12;2371987;83;25726;-76
2022/02/21 00:06:52;;;;;;;2.37;1.57;;;;;;;11.43;51.97;98381.83;2372225;82;25186;-77
2022/02/21 00:10:19;;;;;;;2.40;1.20;;;;;;;11.46;51.90;98365.70;2364160;82;26019;-77
2022/02/21 00:13:46;;;;;;;2.17;1.57;;;;;;;11.47;51.88;98362.64;2370456;82;30758;-77
2022/02/21 00:17:13;;;;;;;3.02;1.37;;;;;;;11.47;51.88;98360.89;2272430;85;25741;-77
2022/02/21 00:20:53;;;;;;;2.52;1.42;;;;;;;11.49;51.82;98348.70;2271908;85;25758;-76
2022/02/21 00:24:15;;;;;;;4.35;2.12;;;;;;;11.50;51.77;98350.42;2271028;87;25794;-76
2022/02/21 00:27:55;;;;;;;2.42;1.70;;;;;;;11.50;51.77;98353.48;2271955;84;25785;-78
2022/02/21 00:31:27;;;;;;;3.00;1.40;;;;;;;11.52;51.79;98343.45;2177052;90;25904;-76
2022/02/21 00:35:03;;;;;;;2.60;1.57;;;;;;;11.54;51.75;98322.55;2158052;89;25757;-77
2022/02/21 00:38:31;;;;;;;3.77;1.35;;;;;;;11.55;51.71;98322.98;2158554;91;25757;-77
2022/02/21 00:41:52;;;;;;;2.37;1.23;;;;;;;11.58;51.68;98324.25;2159198;91;25794;-77
2022/02/21 00:45:21;;;;;;;1.30;1.00;;;;;;;11.59;51.63;98309.01;2159394;91;31533;-77
2022/02/21 00:48:47;;;;;;;2.50;1.30;;;;;;;11.61;51.60;98309.86;2158969;90;25704;-76
2022/02/21 00:52:07;;;;;;;2.33;1.40;;;;;;;11.64;51.57;98300.66;2152277;90;25752;-77
2022/02/21 00:55:33;;;;;;;1.92;1.17;;;;;;;11.65;51.51;98295.02;2151111;90;30018;-77
2022/02/21 00:59:07;;;;;;;2.45;1.32;;;;;;;11.67;51.47;98282.79;2150415;92;25820;-76
2022/02/21 01:02:43;;;;;;;1.37;1.10;;;;;;;11.67;51.46;98267.99;2181131;89;25834;-78
2022/02/21 01:06:22;;;;;;;1.87;1.22;;;;;;;11.70;51.42;98271.01;2201959;88;25830;-77
2022/02/21 01:09:45;;;;;;;1.57;1.12;;;;;;;11.71;51.37;98257.95;2200629;88;25895;-76
2022/02/21 01:13:58;;;;;;;1.75;1.15;;;;;;;11.72;51.34;98246.62;2229270;87;25743;-77
2022/02/21 01:17:32;;;;;;;2.22;1.30;;;;;;;11.75;51.31;98249.63;2225779;87;25938;-78
2022/02/21 01:21:23;;;;;;;2.02;1.10;;;;;;;11.76;51.30;98230.46;2203431;88;26378;-76
2022/02/21 01:24:47;;;;;;;1.47;1.00;;;;;;;11.77;51.25;98216.52;2229039;87;25786;-78
2022/02/21 01:28:27;;;;;;;2.35;1.15;;;;;;;11.79;51.24;98208.23;2228673;85;26043;-78
2022/02/21 01:31:47;;;;;;;1.20;0.90;;;;;;;11.80;51.17;98209.50;2276117;85;25723;-78
2022/02/21 01:35:11;;;;;;;1.20;0.75;;;;;;;11.82;51.16;98205.13;2303634;85;30606;-77
2022/02/21 01:38:53;;;;;;;1.72;1.02;;;;;;;11.86;51.14;98200.75;2338923;83;25785;-78
2022/02/21 01:42:38;;;;;;;1.30;1.00;;;;;;;11.87;51.12;98177.66;2338374;84;25768;-78
2022/02/21 01:46:48;;;;;;;2.25;1.00;;;;;;;11.89;51.12;98184.17;2290908;85;25671;-78
2022/02/21 01:50:21;;;;;;;;;;;;;;;;;;;;;
2022/02/21 01:54:03;;;;;;;1.67;1.10;;;;;;;11.90;51.15;98152.80;2303384;85;25702;-77
2022/02/21 01:57:44;;;;;;;1.65;1.10;;;;;;;11.89;51.22;98153.70;2184209;86;25677;-77
2022/02/21 02:01:24;;;;;;;1.95;1.10;;;;;;;11.90;51.29;98155.87;2189952;90;25725;-78
2022/02/21 02:04:44;;;;;;;1.82;1.15;;;;;;;11.90;51.35;98131.92;2188891;88;25759;-77
2022/02/21 02:08:24;;;;;;;1.25;0.85;;;;;;;11.90;51.40;98133.67;2191180;90;30949;-77
2022/02/21 02:11:52;;;;;;;1.72;1.10;;;;;;;11.90;51.47;98119.31;2160990;90;25726;-77
2022/02/21 02:15:20;;;;;;;2.17;1.15;;;;;;;11.90;51.51;98111.48;2248515;88;25861;-77
2022/02/21 02:18:52;;;;;;;;;;;;;;;11.90;51.51;98111.48;2220098;87;25869;-77
2022/02/21 02:22:26;;;;;;;3.13;1.07;;;;;;;11.90;51.70;98100.59;2204966;88;25382;-78
2022/02/21 02:25:57;;;;;;;5.28;1.20;;;;;;;11.89;51.74;98092.80;2171965;90;25605;-77
2022/02/21 02:29:32;;;;;;;1.72;1.17;;;;;;;11.87;51.83;98083.68;2248178;87;25839;-77
2022/02/21 02:32:59;;;;;;;1.35;0.98;;;;;;;11.86;51.93;98083.27;2192562;88;25776;-77
2022/02/21 02:36:19;;;;;;;2.27;0.70;;;;;;;11.85;52.06;98059.38;2242608;87;25704;-77
2022/02/21 02:39:41;;;;;;;1.42;0.98;;;;;;;11.85;52.17;98052.84;2281707;86;31433;-78
2022/02/21 02:43:08;;;;;;;1.10;0.90;;;;;;;11.86;52.26;98053.70;2284680;85;25772;-78
2022/02/21 02:46:35;;;;;;;2.05;0.90;;;;;;;11.85;52.28;98042.86;2258107;86;25651;-76
2022/02/21 02:49:56;;;;;;;1.22;1.10;;;;;;;11.85;52.39;98033.72;2258248;87;30621;-77
2022/02/21 02:53:23;;;;;;;1.15;0.90;;;;;;;11.83;52.49;98021.50;2247300;86;29994;-76
2022/02/21 02:56:54;;;;;;;1.45;0.95;;;;;;;11.83;52.56;98022.80;2245949;85;25888;-77
2022/02/21 03:00:18;;;;;;;2.05;1.35;;;;;;;11.82;52.62;98010.66;2244923;88;25818;-77
2022/02/21 03:03:53;;;;;;;1.42;1.00;;;;;;;11.81;52.72;98003.72;2246355;88;25683;-78
2022/02/21 03:07:16;;;;;;;0.90;0.70;;;;;;;11.81;52.73;98001.53;2259863;86;25783;-77
2022/02/21 03:11:03;;;;;;;1.32;1.00;;;;;;;11.80;52.79;97985.02;2263572;87;25695;-77
2022/02/21 03:14:52;;;;;;;3.70;1.05;;;;;;;11.80;52.85;97993.30;2261374;86;25854;-78
2022/02/21 03:18:32;;;;;;;1.12;0.70;;;;;;;11.81;52.94;97977.62;2242637;87;25715;-79
2022/02/21 03:22:04;;;;;;;1.12;0.65;;;;;;;11.79;52.96;97973.31;2285726;84;25674;-77
2022/02/21 03:29:17;;;;;;;1.60;0.70;;;;;;;11.79;53.12;97964.17;2262593;86;25739;-77
2022/02/21 03:32:51;;;;;;;1.22;0.60;;;;;;;11.78;53.15;97944.20;2263785;86;25967;-77
2022/02/21 03:36:08;;;;;;;1.47;0.88;;;;;;;11.78;53.18;97933.76;2150174;89;26663;-77
2022/02/21 03:39:43;;;;;;;1.05;0.70;;;;;;;11.77;53.24;97925.48;2150034;90;25833;-78
2022/02/21 03:43:16;;;;;;;0.80;0.60;;;;;;;11.77;53.35;97918.97;2125126;92;25766;-78
2022/02/21 03:47:03;;;;;;;1.07;0.90;;;;;;;11.78;53.37;97923.31;2108049;91;25746;-77
2022/02/21 03:50:43;;;;;;;1.30;0.98;;;;;;;11.78;53.38;97901.98;2081074;93;25836;-77
2022/02/21 03:54:22;;;;;;;3.40;1.00;;;;;;;11.78;53.39;97891.55;2098840;93;25820;-77
2022/02/21 03:57:43;;;;;;;1.72;1.12;;;;;;;11.76;53.43;97888.09;2045593;92;25792;-78
2022/02/21 04:01:13;;;;;;;2.27;1.05;;;;;;;11.75;53.46;97890.30;2045927;96;31031;-76
2022/02/21 04:04:43;;;;;;;1.65;1.02;;;;;;;11.76;53.51;97890.70;2027297;96;25751;-79
2022/02/21 04:08:05;;;;;;;2.52;1.27;;;;;;;11.73;53.57;97866.42;2026038;97;25799;-78
2022/02/21 04:11:26;;;;;;;1.85;1.22;;;;;;;11.73;53.62;97854.68;2025987;97;25831;-77
2022/02/21 04:14:50;;;;;;;2.40;1.17;;;;;;;11.74;53.64;97849.41;2035566;95;25812;-78
2022/02/21 04:18:10;;;;;;;1.82;0.98;;;;;;;11.72;53.71;97832.95;2046300;95;25978;-78
2022/02/21 04:21:59;;;;;;;4.03;1.17;;;;;;;11.73;53.73;97816.84;2070137;93;35220;-77
2022/02/21 04:25:19;;;;;;;1.22;0.90;;;;;;;11.73;53.80;97807.25;2081671;95;25764;-77
2022/02/21 04:28:43;;;;;;;2.42;0.93;;;;;;;11.72;53.84;97797.72;2082304;95;25331;-77
2022/02/21 04:32:07;;;;;;;1.70;1.20;;;;;;;11.71;53.85;97793.40;2148397;84;25799;-77
2022/02/21 04:35:34;;;;;;;2.27;1.22;;;;;;;11.72;53.90;97779.45;2346392;83;25623;-77
2022/02/21 04:38:54;;;;;;;1.37;0.70;;;;;;;11.72;53.93;97770.77;2347148;84;25668;-77
2022/02/21 04:42:24;;;;;;;1.65;0.78;;;;;;;11.73;54.01;97763.34;2347521;83;30908;-78
2022/02/21 04:45:45;;;;;;;1.07;0.93;;;;;;;11.72;54.00;97777.29;2346742;84;25717;-78
2022/02/21 04:53:38;;;;;;;1.85;0.88;;;;;;;11.71;54.02;97758.17;2184034;89;25275;-78
2022/02/21 04:57:02;;;;;;;1.60;0.80;;;;;;;11.70;54.13;97759.49;2183500;89;25570;-78
2022/02/21 05:00:33;;;;;;;1.95;1.00;;;;;;;11.69;54.15;97746.89;2186334;89;25807;-78
2022/02/21 05:04:23;;;;;;;1.40;0.90;;;;;;;11.69;54.21;97754.73;2186903;89;25728;-78
2022/02/21 05:08:14;;;;;;;1.60;0.68;;;;;;;11.70;54.25;97745.99;2182247;89;25807;-78
2022/02/21 05:11:43;;;;;;;1.22;0.60;;;;;;;11.69;54.28;97742.12;2185490;89;25750;-77
2022/02/21 05:15:15;;;;;;;0.60;0.50;;;;;;;11.67;54.39;97759.11;2185720;90;25334;-77
2022/02/21 05:18:51;;;;;;;0.95;0.62;;;;;;;11.69;54.40;97749.50;2228874;87;25789;-77
2022/02/21 05:22:21;;;;;;;2.33;0.70;;;;;;;11.68;54.41;97738.67;2256239;84;25796;-77
2022/02/21 05:26:14;;;;;;;0.75;0.47;;;;;;;11.67;54.54;97739.53;2344874;83;25687;-77
2022/02/21 05:29:37;;;;;;;1.72;0.68;;;;;;;11.67;54.59;97726.48;2269952;86;25742;-78
2022/02/21 05:33:16;;;;;;;1.80;0.93;;;;;;;11.68;54.65;97736.05;2270385;87;30027;-77
2022/02/21 05:36:45;;;;;;;1.00;0.50;;;;;;;11.68;54.66;97730.84;2268252;84;25750;-77
2022/02/21 05:40:16;;;;;;;1.67;1.00;;;;;;;11.67;54.74;97730.86;2269015;86;25727;-78
2022/02/21 05:43:47;;;;;;;1.17;0.70;;;;;;;11.66;54.85;97715.66;2269441;85;26423;-76
2022/02/21 05:47:20;;;;;;;1.23;0.60;;;;;;;11.66;54.85;97723.48;2269379;84;26159;-76
2022/02/21 05:50:48;;;;;;;0.95;0.65;;;;;;;11.66;54.88;97709.58;2269621;85;25719;-77
2022/02/21 05:54:34;;;;;;;0.70;0.50;;;;;;;11.67;54.95;97738.69;2285069;84;25281;-77
2022/02/21 05:58:24;;;;;;;0.90;0.70;;;;;;;11.65;55.04;97720.47;2242978;87;26549;-77
2022/02/21 06:01:47;;;;;;;1.37;0.70;;;;;;;11.65;55.09;97707.87;2241580;88;25713;-76
2022/02/21 06:05:19;;;;;;;0.90;0.70;;;;;;;11.65;55.13;97703.51;2240570;84;26335;-77
2022/02/21 06:09:11;;;;;;;;;;;;;;;;;;;;;
2022/02/21 06:12:35;;;;;;;1.95;0.70;;;;;;;11.66;55.18;97676.96;2220417;87;25898;-79
2022/02/21 06:16:15;;;;;;;1.05;0.70;;;;;;;11.65;55.29;97687.85;2242169;88;25272;-78
2022/02/21 06:19:38;;;;;;;1.15;0.55;;;;;;;11.66;55.31;97681.73;2192351;88;25811;-78
2022/02/21 06:23:07;;;;;;;0.80;0.50;;;;;;;11.67;55.36;97676.91;2205859;88;25864;-78
2022/02/21 06:26:50;;;;;;;1.27;0.68;;;;;;;11.68;55.38;97662.14;2219926;89;25920;-79
2022/02/21 06:30:34;;;;;;;0.88;0.50;;;;;;;11.69;55.42;97668.61;2219111;87;25980;-78
2022/02/21 06:34:05;;;;;;;0.85;0.78;;;;;;;11.70;55.42;97657.72;2250576;86;25797;-78
2022/02/21 06:37:52;;;;;;;;;;;;;;;;;;;;;
2022/02/21 06:45:31;;;;;;;1.17;0.72;;;;;;;11.74;55.47;97659.35;2046491;95;26002;-78
2022/02/21 06:48:54;;;;;;;1.70;0.75;;;;;;;11.75;55.49;97648.05;2018506;95;26183;-79
2022/02/21 06:52:18;;;;;;;1.65;0.50;;;;;;;11.76;55.47;97645.37;2052723;94;25829;-79
2022/02/21 07:03:45;;;;;;;1.00;0.60;;;;;;;11.79;55.51;97624.88;2060617;94;26037;-78
2022/02/21 07:07:17;;;;;;;1.45;0.65;;;;;;;11.80;55.50;97616.14;2060049;92;25689;-79
2022/02/21 07:11:21;;;;;;;0.78;0.50;;;;;;;11.80;55.50;97621.36;2060393;95;25807;-80
2022/02/21 07:19:33;;;;;;;1.17;0.62;;;;;;;11.82;55.49;97609.14;2057001;95;25732;-79
2022/02/21 07:22:54;;;;;;;0.75;0.60;;;;;;;11.83;55.53;97618.67;2218028;88;25363;-77
2022/02/21 07:29:58;;;;;;;1.52;0.70;;;;;;;11.85;55.55;97635.20;2179006;90;25817;-79
2022/02/21 07:33:34;;;;;;;0.70;0.50;;;;;;;11.87;55.56;97619.48;2179867;90;25946;-78
2022/02/21 07:37:08;;;;;;;0.98;0.53;;;;;;;11.89;55.54;97635.52;2180134;89;25764;-79
2022/02/21 07:44:24;;;;;;;1.10;0.70;;;;;;;11.99;55.48;97629.17;1982193;98;25824;-79
2022/02/21 07:48:11;;;;;;;1.10;0.70;;;;;;;12.05;55.42;97621.63;1982960;97;25822;-79
2022/02/21 07:51:50;;;;;;;1.90;0.72;;;;;;;12.10;55.37;97620.19;1905525;100;25840;-80
2022/02/21 07:55:21;;;;;;;1.10;0.60;;;;;;;12.17;55.39;97613.91;1909203;102;26461;-78
2022/02/21 07:58:58;;;;;;;0.80;0.60;;;;;;;12.21;55.34;97618.14;1908573;99;25849;-79
2022/02/21 08:02:34;;;;;;;0.50;0.50;;;;;;;12.25;55.51;97618.03;1890099;104;25877;-79
2022/02/21 08:06:25;;;;;;;1.47;0.60;;;;;;;12.33;55.47;97624.34;1865063;104;25869;-77
2022/02/21 08:10:08;;;;;;;3.70;0.70;;;;;;;12.37;55.42;97622.05;1892176;103;25969;-78
2022/02/21 08:13:34;;;;;;;1.98;0.60;;;;;;;12.42;55.48;97622.79;1898116;101;25821;-78
2022/02/21 08:17:15;;;;;;;0.65;0.50;;;;;;;12.48;55.29;97636.11;1943648;100;25824;-79
2022/02/21 08:21:14;;;;;;;;;;;;;;;;;;;;;
2022/02/21 08:24:38;;;;;;;1.12;0.70;;;;;;;12.58;55.19;97638.87;1890889;103;26199;-79
2022/02/21 08:28:20;;;;;;;0.80;0.53;;;;;;;12.63;55.15;97629.61;1895020;99;26098;-79
2022/02/21 08:32:01;;;;;;;1.12;0.60;;;;;;;12.67;55.07;97643.84;1889049;103;25964;-79
2022/02/21 08:35:46;;;;;;;1.22;0.80;;;;;;;12.74;54.98;97645.83;1856086;106;25888;-79
2022/02/21 08:39:18;;;;;;;2.58;0.50;;;;;;;12.79;54.93;97637.42;1821747;107;26049;-79
2022/02/21 08:42:56;;;;;;;0.85;0.62;;;;;;;12.85;54.77;97631.13;1727962;110;26033;-79
2022/02/21 08:46:53;;;;;;;;;;;;;;;;;;;;;
2022/02/21 08:59:17;;;;;;;;;;;;;;;;;;;;;
2022/02/21 09:03:56;;;;;;;;;;;;;;;;;;;;;
2022/02/21 09:14:36;;;;;;;6.35;1.25;;;;;;;13.04;54.04;97615.30;1758009;111;25922;-76
2022/02/21 09:18:12;;;;;;;2.25;1.05;;;;;;;13.17;53.79;97640.64;1762001;110;25896;-78
2022/02/21 09:26:16;;;;;;;1.15;0.90;;;;;;;13.24;53.40;97644.80;1811488;107;26620;-78
2022/02/21 09:29:58;;;;;;;1.30;1.00;;;;;;;13.30;53.35;97639.39;1861954;106;25918;-76
2022/02/21 09:33:44;;;;;;;3.42;1.00;;;;;;;13.30;53.18;97638.54;1845521;105;25817;-77
2022/02/21 09:37:36;;;;;;;1.87;1.02;;;;;;;13.29;53.07;97647.27;1911894;103;25844;-75
2022/02/21 09:41:27;;;;;;;2.47;1.40;;;;;;;13.28;53.00;97639.88;1905812;102;25795;-78
2022/02/21 09:45:19;;;;;;;2.42;0.93;;;;;;;13.31;52.84;97642.41;1873220;104;26221;-75
2022/02/21 09:49:07;;;;;;;2.22;1.10;;;;;;;13.32;52.81;97651.95;1909403;102;25704;-76
2022/02/21 09:56:47;;;;;;;2.90;1.42;;;;;;;13.36;52.64;97657.48;1931317;100;25819;-77
2022/02/21 10:00:38;;;;;;;;;;;;;;;;;;;;;
2022/02/21 10:03:57;;;;;;;1.35;0.90;;;;;;;13.43;52.37;97645.95;1985892;99;25378;-76
2022/02/21 10:07:36;;;;;;;5.70;1.20;;;;;;;13.46;52.22;97649.78;1960910;100;26656;-76
2022/02/21 10:11:03;;;;;;;1.70;1.10;;;;;;;13.49;52.04;97651.42;2000854;98;25856;-76
2022/02/21 10:14:39;;;;;;;1.30;0.80;;;;;;;13.55;51.97;97648.61;2005532;98;26414;-78
2022/02/21 10:18:47;;;;;;;;;;;;;;;;;;;;;
2022/02/21 10:22:27;;;;;;;1.57;1.12;;;;;;;13.53;51.85;97653.03;1953902;100;26084;-77
2022/02/21 10:26:25;;;;;;;2.08;1.07;;;;;;;13.46;51.77;97658.94;1949455;100;25784;-77
2022/02/21 10:30:38;;;;;;;;;;;;;;;;;;;;;
2022/02/21 10:34:27;;;;;;;1.87;1.27;;;;;;;13.46;51.62;97664.17;1989194;97;25806;-76
2022/02/21 10:38:17;;;;;;;1.72;1.00;;;;;;;13.46;51.38;97661.56;1996177;98;25805;-75
2022/02/21 10:41:48;;;;;;;1.42;1.07;;;;;;;13.55;51.29;97658.23;1943617;100;25761;-77
2022/02/21 10:45:36;;;;;;;1.50;1.20;;;;;;;13.60;51.11;97658.92;1868385;104;25989;-76
2022/02/21 10:49:41;;;;;;;2.37;1.10;;;;;;;13.62;51.00;97660.59;1950406;98;25801;-78
2022/02/21 10:53:24;;;;;;;7.58;0.93;;;;;;;13.67;50.79;97649.54;1926237;102;34873;-77
2022/02/21 10:56:58;;;;;;;1.72;0.78;;;;;;;13.79;50.53;97668.36;1894104;104;25867;-77
2022/02/21 11:00:37;;;;;;;1.17;0.82;;;;;;;13.81;50.36;97660.02;1949915;98;25837;-80
2022/02/21 11:04:10;;;;;;;1.40;1.00;;;;;;;13.75;50.12;97672.84;1922036;102;25801;-77
2022/02/21 11:08:06;;;;;;;2.27;1.12;;;;;;;13.71;50.08;97696.11;1908485;102;26041;-78
2022/02/21 11:12:01;;;;;;;2.75;1.10;;;;;;;13.65;50.15;97708.08;1910492;102;25830;-77
2022/02/21 11:19:32;;;;;;;2.50;1.55;;;;;;;13.59;50.91;97775.86;2137626;91;25994;-78
2022/02/21 11:23:30;;;;;;;;;;;;;;;;;;;;;
2022/02/21 11:27:54;;;;;;;2.35;1.32;;;;;;;13.54;51.13;97798.72;2059716;91;25818;-76
2022/02/21 11:31:46;;;;;;;2.42;1.17;;;;;;;13.53;51.20;97809.20;2045526;94;25816;-78
2022/02/21 11:35:45;;;;;;;2.75;1.00;;;;;;;13.51;51.20;97806.66;1988623;97;25993;-78
2022/02/21 11:39:40;;;;;;;1.52;0.90;;;;;;;13.52;51.28;97809.66;2005476;97;25748;-79
2022/02/21 11:43:34;;;;;;;1.27;1.00;;;;;;;13.53;51.03;97796.13;2140417;90;25855;-78
2022/02/21 11:47:14;;;;;;;1.60;1.10;;;;;;;13.54;51.10;97810.95;2170721;90;26536;-79
2022/02/21 11:50:37;;;;;;;1.25;0.78;;;;;;;13.56;50.96;97805.20;2169226;90;44560;-76
2022/02/21 11:54:17;;;;;;;3.42;0.70;;;;;;;13.56;50.87;97816.52;2150821;88;25783;-79
2022/02/21 11:57:39;;;;;;;1.70;0.88;;;;;;;13.57;50.82;97835.27;2236437;88;25780;-78
2022/02/21 12:01:20;;;;;;;2.83;0.85;;;;;;;13.48;50.37;97860.84;2241575;87;26435;-79
2022/02/21 12:05:08;;;;;;;1.60;0.85;;;;;;;13.48;50.37;97860.84;2229211;87;26283;-79
2022/02/21 12:08:50;;;;;;;1.27;1.07;;;;;;;13.39;50.41;97873.27;2168322;89;25848;-79
2022/02/21 12:12:27;;;;;;;1.17;0.68;;;;;;;13.31;50.29;97853.47;2195733;87;25957;-79
2022/02/21 12:16:08;;;;;;;1.60;0.80;;;;;;;13.25;50.21;97853.63;2236717;85;25937;-79
2022/02/21 12:20:06;;;;;;;1.25;0.70;;;;;;;13.19;50.16;97837.61;2233959;87;25734;-79
2022/02/21 12:23:32;;;;;;;3.67;0.85;;;;;;;13.19;50.15;97828.00;2168482;89;25807;-78
2022/02/21 12:27:15;;;;;;;1.00;0.57;;;;;;;13.17;50.10;97834.20;2166717;91;25844;-78
2022/02/21 12:30:53;;;;;;;1.60;0.65;;;;;;;13.17;50.07;97833.75;2161515;88;26549;-76
2022/02/21 12:34:56;;;;;;;1.00;0.57;;;;;;;13.18;49.91;97848.53;2161841;89;25730;-79
2022/02/21 12:38:46;;;;;;;1.65;0.90;;;;;;;13.18;49.81;97848.98;2163653;90;26093;-77
2022/02/21 12:42:32;;;;;;;;;;;;;;;;;;;;;
2022/02/21 12:45:54;;;;;;;1.75;0.95;;;;;;;13.26;49.47;97875.81;2133121;90;26347;-79
2022/02/21 12:54:19;;;;;;;1.85;1.07;;;;;;;13.61;48.95;97885.31;2133038;91;25723;-78
2022/02/21 13:01:53;;;;;;;1.12;0.80;;;;;;;13.97;48.41;97895.59;2032364;95;25690;-79
2022/02/21 13:09:14;;;;;;;2.00;0.88;;;;;;;13.86;47.76;97880.20;2037527;95;26042;-77
2022/02/21 13:12:49;;;;;;;1.55;0.80;;;;;;;13.85;47.27;97870.64;2035285;95;25856;-78
2022/02/21 13:17:03;;;;;;;1.45;1.12;;;;;;;13.85;47.27;97870.64;2037754;95;25830;-79
2022/02/21 13:24:57;;;;;;;2.92;1.32;;;;;;;14.15;46.84;97913.86;1914074;101;25861;-79
2022/02/21 13:32:35;;;;;;;2.87;1.32;;;;;;;14.21;46.28;97929.82;1776137;110;25934;-77
2022/02/21 13:36:00;;;;;;;2.47;1.20;;;;;;;14.27;46.21;97935.73;1825367;106;25904;-76
2022/02/21 13:40:02;;;;;;;2.17;1.47;;;;;;;14.28;46.01;97954.96;1840368;106;31558;-78
2022/02/21 13:43:38;;;;;;;2.10;1.05;;;;;;;14.18;45.57;97958.30;1835357;106;25856;-78
2022/02/21 13:47:32;;;;;;;2.20;1.35;;;;;;;14.18;45.57;97958.30;1834910;106;26219;-80
2022/02/21 13:51:26;;;;;;;3.20;1.55;;;;;;;14.00;45.59;97948.34;1827577;105;25802;-81
2022/02/21 13:55:17;;;;;;;;;;;;;;;;;;;;;
2022/02/21 13:59:09;;;;;;;;;;;;;;;;;;;;;
2022/02/21 14:02:42;;;;;;;1.52;1.15;;;;;;;14.06;45.25;98011.90;1855058;105;25718;-77
2022/02/21 14:10:24;;;;;;;2.12;1.20;;;;;;;14.04;45.12;98018.08;1911444;101;26644;-79
2022/02/21 14:14:19;;;;;;;2.12;0.88;;;;;;;14.08;44.98;97986.98;1906240;102;25870;-79
2022/02/21 14:18:08;;;;;;;1.57;0.82;;;;;;;14.71;44.52;98010.02;1874418;103;25876;-78
2022/02/21 14:22:03;;;;;;;2.45;1.07;;;;;;;15.17;43.54;97998.06;1944797;98;25829;-78
2022/02/21 14:25:34;;;;;;;1.87;1.00;;;;;;;15.24;43.10;97996.48;1948660;100;25725;-78
2022/02/21 14:29:08;;;;;;;2.45;1.00;;;;;;;15.62;42.54;98020.58;1957002;101;25805;-77
2022/02/21 14:36:17;;;;;;;5.03;0.93;;;;;;;15.77;41.83;98027.97;1829955;106;25907;-78
2022/02/21 14:40:06;;;;;;;2.40;1.42;;;;;;;15.72;41.82;98027.26;1847224;105;25835;-78
2022/02/21 14:43:58;;;;;;;1.90;1.20;;;;;;;15.62;41.67;98042.90;1847706;105;25856;-79
2022/02/21 14:47:22;;;;;;;3.27;1.33;;;;;;;15.45;41.80;98059.68;1847270;105;25795;-78
2022/02/21 14:51:20;;;;;;;2.40;1.60;;;;;;;15.26;41.91;98060.30;1872427;102;25937;-77
2022/02/21 14:55:10;;;;;;;5.22;1.77;;;;;;;15.26;41.67;98038.45;1954247;99;26177;-77
2022/02/21 14:58:33;;;;;;;3.20;1.50;;;;;;;15.14;41.57;98030.96;1993405;97;25811;-78
2022/02/21 15:06:07;;;;;;;3.83;1.32;;;;;;;14.84;41.52;98063.81;1958577;100;25843;-79
2022/02/21 15:09:35;;;;;;;5.87;1.40;;;;;;;14.67;41.38;98043.80;1954800;100;25884;-79
2022/02/21 15:13:13;;;;;;;3.15;1.47;;;;;;;14.51;41.28;98033.80;1954650;100;26083;-78
2022/02/21 15:21:06;;;;;;;5.65;1.20;;;;;;;14.16;41.40;98066.21;1942061;100;25840;-77
2022/02/21 15:28:40;;;;;;;4.65;1.60;;;;;;;13.81;41.44;98059.33;2062456;94;25895;-77
2022/02/21 15:32:22;;;;;;;4.17;1.22;;;;;;;13.63;41.53;98049.72;1976784;97;25805;-79
2022/02/21 15:35:51;;;;;;;3.20;1.20;;;;;;;13.56;41.51;98072.17;1852774;104;25913;-78
2022/02/21 15:39:15;;;;;;;3.35;1.50;;;;;;;13.29;41.51;98042.33;1896015;104;25855;-77
2022/02/21 15:42:57;;;;;;;6.80;1.77;;;;;;;13.42;41.61;98066.84;1901935;103;26257;-79
2022/02/21 15:46:20;;;;;;;4.28;1.85;;;;;;;13.35;41.54;98067.89;1909092;100;25834;-79
2022/02/21 15:49:57;;;;;;;6.25;1.82;;;;;;;13.26;41.46;98060.71;1910242;103;25891;-79
2022/02/21 15:53:17;;;;;;;4.08;1.47;;;;;;;13.16;41.44;98064.85;1917226;101;26089;-77
2022/02/21 15:56:59;;;;;;;4.22;1.50;;;;;;;13.07;41.37;98087.29;1940237;101;31629;-78
2022/02/21 16:00:20;;;;;;;3.50;1.25;;;;;;;12.98;41.30;98088.34;1904934;101;25988;-77
2022/02/21 16:03:47;;;;;;;2.62;1.17;;;;;;;12.89;41.30;98102.08;1913460;102;26262;-78
2022/02/21 16:07:17;;;;;;;1.98;1.00;;;;;;;12.81;41.29;98104.01;1956013;99;25826;-78
2022/02/21 16:10:47;;;;;;;2.20;1.20;;;;;;;12.72;41.32;98109.87;2028695;96;25833;-77
2022/02/21 16:14:08;;;;;;;3.00;1.10;;;;;;;12.65;41.29;98131.77;2050300;95;25893;-79
2022/02/21 16:17:51;;;;;;;1.57;0.90;;;;;;;12.58;41.30;98116.26;2050422;96;30994;-77
2022/02/21 16:21:14;;;;;;;2.25;1.27;;;;;;;12.51;41.33;98115.52;2031497;96;25813;-80
2022/02/21 16:24:45;;;;;;;3.35;0.95;;;;;;;12.45;41.35;98131.32;2050403;95;31608;-80
2022/02/21 16:28:23;;;;;;;3.10;1.27;;;;;;;12.41;41.36;98137.50;2050347;96;25730;-77
2022/02/21 16:31:51;;;;;;;2.30;1.40;;;;;;;12.33;41.31;98144.64;2050101;91;25786;-77
2022/02/21 16:35:18;;;;;;;;;;;;;;;12.26;41.39;98142.14;2152930;88;25745;-78
2022/02/21 16:38:37;;;;;;;2.08;0.90;;;;;;;12.22;41.41;98130.48;2231443;88;25879;-78
2022/02/21 16:42:01;;;;;;;3.60;1.30;;;;;;;12.16;41.43;98136.67;2230912;87;25874;-79
2022/02/21 16:45:32;;;;;;;3.92;1.85;;;;;;;12.13;41.40;98122.37;2229068;87;25731;-80
2022/02/21 16:48:54;;;;;;;3.02;1.60;;;;;;;12.09;41.31;98128.55;2229644;87;26012;-80
2022/02/21 16:52:18;;;;;;;4.90;1.10;;;;;;;12.02;41.23;98140.00;2229654;88;30874;-78
2022/02/21 16:55:39;;;;;;;4.97;1.57;;;;;;;11.94;41.16;98147.94;2230624;88;26213;-79
2022/02/21 16:59:00;;;;;;;3.15;1.50;;;;;;;11.88;41.00;98149.38;2261720;84;26365;-80
2022/02/21 17:02:21;;;;;;;2.67;0.95;;;;;;;11.82;40.94;98149.00;2300940;84;25683;-79
2022/02/21 17:05:42;;;;;;;4.00;1.15;;;;;;;11.75;40.83;98153.05;2301092;85;30966;-80
2022/02/21 17:09:17;;;;;;;2.05;1.30;;;;;;;11.70;40.77;98165.30;2301238;84;25950;-78
2022/02/21 17:12:41;;;;;;;2.52;1.32;;;;;;;11.66;40.64;98165.80;2264849;86;25783;-79
2022/02/21 17:16:06;;;;;;;4.17;2.10;;;;;;;11.59;40.49;98158.52;2288158;86;25831;-78
2022/02/21 17:19:52;;;;;;;2.35;1.50;;;;;;;11.52;40.39;98176.46;2288062;84;25860;-79
2022/02/21 17:23:17;;;;;;;2.95;1.40;;;;;;;11.47;40.41;98176.96;2287728;86;25800;-80
2022/02/21 17:26:40;;;;;;;2.75;1.50;;;;;;;11.41;40.40;98177.08;2251132;83;25729;-79
2022/02/21 17:30:08;;;;;;;1.87;1.30;;;;;;;11.32;40.33;98170.23;2349552;82;25735;-79
2022/02/21 17:33:29;;;;;;;1.87;0.90;;;;;;;11.26;40.26;98183.81;2350226;83;25870;-79
2022/02/21 17:36:52;;;;;;;4.28;2.12;;;;;;;11.22;40.28;98183.00;2350043;84;25262;-75
2022/02/21 17:40:15;;;;;;;4.03;1.50;;;;;;;11.19;40.31;98179.13;2350092;83;25770;-80
2022/02/21 17:43:48;;;;;;;6.80;1.12;;;;;;;11.11;40.29;98192.72;2351637;80;25848;-77
2022/02/21 17:47:12;;;;;;;;;;;;;;;11.04;40.25;98191.95;2357897;82;25943;-83
2022/02/21 17:50:46;;;;;;;1.27;0.90;;;;;;;10.99;40.26;98196.78;2363274;83;25709;-78
2022/02/21 17:54:38;;;;;;;2.77;0.87;;;;;;;10.93;40.28;98204.23;2291106;86;25787;-80
2022/02/21 18:02:03;;;;;;;;;;;;;;;;;;;;;
2022/02/21 18:05:48;;;;;;;4.42;1.35;;;;;;;10.74;40.41;98196.25;2097160;92;26265;-76
2022/02/21 18:09:38;;;;;;;3.17;1.05;;;;;;;10.67;40.40;98188.94;2118040;92;25825;-82
2022/02/21 18:13:48;;;;;;;3.30;1.47;;;;;;;10.62;40.61;98195.48;2086363;94;25906;-82
2022/02/21 18:21:06;;;;;;;3.15;1.70;;;;;;;10.55;40.69;98206.01;1906814;102;25877;-79
2022/02/21 18:24:50;;;;;;;;;;;;;;;;;;;;;
2022/02/21 18:28:49;;;;;;;;;;;;;;;;;;;;;
2022/02/21 18:32:25;;;;;;;2.98;1.47;;;;;;;10.43;40.78;98203.52;1833667;107;25985;-81
2022/02/21 18:36:16;;;;;;;3.70;2.05;;;;;;;10.38;40.75;98198.38;1832282;106;26440;-80
2022/02/21 18:44:32;;;;;;;4.72;1.90;;;;;;;10.33;40.76;98194.98;1738277;111;25883;-78
2022/02/21 18:48:09;;;;;;;4.78;2.25;;;;;;;10.27;40.75;98195.89;1794023;108;25893;-82
2022/02/21 18:52:02;;;;;;;3.05;2.20;;;;;;;10.25;40.71;98191.54;1801633;107;25825;-85
2022/02/21 18:55:44;;;;;;;6.95;2.80;;;;;;;10.23;40.73;98194.61;1877371;104;26048;-80
2022/02/21 18:59:35;;;;;;;5.05;2.30;;;;;;;10.22;40.78;98204.58;1942420;96;26439;-80
2022/02/21 19:03:40;;;;;;;7.30;2.42;;;;;;;10.21;40.74;98202.87;2008616;96;25846;-79
2022/02/21 19:10:48;;;;;;;5.90;3.17;;;;;;;10.25;40.83;98202.81;1963845;100;26015;-76
2022/02/21 19:14:32;;;;;;;6.42;2.77;;;;;;;10.25;40.67;98198.91;1866480;104;25962;-75
2022/02/21 19:18:03;;;;;;;3.77;2.58;;;;;;;10.27;40.76;98195.03;1866555;104;25972;-74
2022/02/21 19:21:31;;;;;;;4.47;2.90;;;;;;;10.32;40.66;98212.31;1856698;104;26035;-76
2022/02/21 19:24:54;;;;;;;5.62;3.05;;;;;;;10.38;40.73;98208.34;1970228;98;26531;-81
2022/02/21 19:28:17;;;;;;;4.62;2.95;;;;;;;10.43;40.64;98204.83;2009722;98;25845;-76